createdAt,value
2019-03-15T00:00:42.250Z,0
2019-03-15T00:01:44.494Z,0
2019-03-15T00:02:46.619Z,0
2019-03-15T00:03:48.761Z,0
2019-03-15T00:04:50.797Z,0
2019-03-15T00:05:52.801Z,0
2019-03-15T00:06:54.825Z,0
2019-03-15T00:07:57.106Z,0
2019-03-15T00:08:59.117Z,0
2019-03-15T00:10:01.139Z,0
2019-03-15T00:11:03.179Z,0
2019-03-15T00:12:06.216Z,0
2019-03-15T00:13:08.527Z,0
2019-03-15T00:14:10.607Z,0
2019-03-15T00:15:12.630Z,0
2019-03-15T00:16:14.640Z,0
2019-03-15T00:17:16.640Z,0
2019-03-15T00:18:18.640Z,0
2019-03-15T00:19:21.037Z,0
2019-03-15T00:20:23.044Z,0
2019-03-15T00:21:25.046Z,0
2019-03-15T00:22:27.052Z,0
2019-03-15T00:23:29.160Z,0
2019-03-15T00:24:31.168Z,0
2019-03-15T00:25:33.174Z,0
2019-03-15T00:26:35.185Z,0
2019-03-15T00:27:37.495Z,0
2019-03-15T00:28:39.506Z,0
2019-03-15T00:29:41.516Z,0
2019-03-15T00:30:43.535Z,0
2019-03-15T00:31:45.536Z,0
2019-03-15T00:32:47.705Z,0
2019-03-15T00:33:50.654Z,0
2019-03-15T00:34:52.853Z,0
2019-03-15T00:35:55.150Z,0
2019-03-15T00:36:57.543Z,0
2019-03-15T00:37:59.555Z,0
2019-03-15T00:39:01.817Z,0
2019-03-15T00:40:03.819Z,0
2019-03-15T00:41:06.215Z,0
2019-03-15T00:42:08.448Z,0
2019-03-15T00:43:10.488Z,0
2019-03-15T00:44:12.492Z,0
2019-03-15T00:45:14.496Z,0
2019-03-15T00:46:16.503Z,0
2019-03-15T00:47:18.902Z,0
2019-03-15T00:48:20.921Z,0
2019-03-15T00:49:22.928Z,0
2019-03-15T00:50:24.939Z,0
2019-03-15T00:51:26.938Z,0
2019-03-15T00:52:28.937Z,0
2019-03-15T00:53:30.939Z,0
2019-03-15T00:54:32.939Z,0
2019-03-15T00:55:35.087Z,0
2019-03-15T00:56:37.387Z,0
2019-03-15T00:57:39.437Z,0
2019-03-15T00:58:41.444Z,0
2019-03-15T00:59:43.726Z,0
2019-03-15T01:00:45.731Z,0
2019-03-15T01:01:47.733Z,0
2019-03-15T01:02:49.736Z,0
2019-03-15T01:03:51.936Z,0
2019-03-15T01:04:53.934Z,0
2019-03-15T01:05:56.180Z,0
2019-03-15T01:06:58.186Z,0
2019-03-15T01:08:00.745Z,0
2019-03-15T01:09:03.411Z,0
2019-03-15T01:10:05.615Z,0
2019-03-15T01:11:07.617Z,0
2019-03-15T01:12:09.892Z,0
2019-03-15T01:13:11.891Z,0
2019-03-15T01:14:13.893Z,0
2019-03-15T01:15:15.894Z,0
2019-03-15T01:16:17.896Z,0
2019-03-15T01:17:19.907Z,0
2019-03-15T01:18:21.909Z,0
2019-03-15T01:19:23.920Z,0
2019-03-15T01:20:25.923Z,0
2019-03-15T01:21:27.917Z,0
2019-03-15T01:22:30.696Z,0
2019-03-15T01:23:32.975Z,0
2019-03-15T01:24:35.385Z,0
2019-03-15T01:25:37.386Z,0
2019-03-15T01:26:39.385Z,0
2019-03-15T01:27:41.690Z,0
2019-03-15T01:28:43.985Z,0
2019-03-15T01:29:45.990Z,0
2019-03-15T01:30:48.079Z,0
2019-03-15T01:31:50.083Z,0
2019-03-15T01:32:52.098Z,0
2019-03-15T01:33:54.098Z,0
2019-03-15T01:34:56.108Z,0
2019-03-15T01:35:58.387Z,0
2019-03-15T01:37:00.510Z,0
2019-03-15T01:38:02.518Z,0
2019-03-15T01:39:04.536Z,0
2019-03-15T01:40:06.940Z,0
2019-03-15T01:41:09.218Z,0
2019-03-15T01:42:11.219Z,0
2019-03-15T01:43:13.347Z,0
2019-03-15T01:44:15.459Z,0
2019-03-15T01:45:18.406Z,0
2019-03-15T01:46:20.446Z,0
2019-03-15T01:47:22.447Z,0
2019-03-15T01:48:26.209Z,0
2019-03-15T01:49:28.212Z,0
2019-03-15T01:50:30.217Z,0
2019-03-15T01:51:32.226Z,0
2019-03-15T01:52:34.634Z,0
2019-03-15T01:53:36.637Z,0
2019-03-15T01:54:38.647Z,0
2019-03-15T01:55:40.647Z,0
2019-03-15T01:56:42.664Z,0
2019-03-15T01:57:44.669Z,0
2019-03-15T01:58:46.683Z,0
2019-03-15T01:59:48.686Z,0
2019-03-15T02:00:50.874Z,0
2019-03-15T02:01:53.285Z,0
2019-03-15T02:02:55.287Z,0
2019-03-15T02:03:57.293Z,0
2019-03-15T02:04:59.299Z,0
2019-03-15T02:06:01.804Z,0
2019-03-15T02:07:03.811Z,0
2019-03-15T02:08:05.813Z,0
2019-03-15T02:09:09.197Z,0
2019-03-15T02:10:11.474Z,0
2019-03-15T02:11:13.480Z,0
2019-03-15T02:12:15.484Z,0
2019-03-15T02:13:17.492Z,0
2019-03-15T02:14:19.783Z,0
2019-03-15T02:15:21.793Z,0
2019-03-15T02:16:23.795Z,0
2019-03-15T02:17:26.670Z,0
2019-03-15T02:18:28.875Z,0
2019-03-15T02:19:31.170Z,0
2019-03-15T02:20:33.571Z,0
2019-03-15T02:21:35.748Z,0
2019-03-15T02:22:38.080Z,0
2019-03-15T02:23:40.096Z,0
2019-03-15T02:24:42.096Z,0
2019-03-15T02:25:44.389Z,0
2019-03-15T02:26:46.390Z,0
2019-03-15T02:27:49.711Z,0
2019-03-15T02:28:51.713Z,0
2019-03-15T02:29:53.801Z,0
2019-03-15T02:30:56.191Z,0
2019-03-15T02:31:58.239Z,0
2019-03-15T02:33:00.517Z,0
2019-03-15T02:34:02.551Z,0
2019-03-15T02:35:05.578Z,0
2019-03-15T02:36:08.257Z,0
2019-03-15T02:37:10.286Z,0
2019-03-15T02:38:12.598Z,0
2019-03-15T02:39:14.903Z,0
2019-03-15T02:40:16.909Z,0
2019-03-15T02:41:19.496Z,0
2019-03-15T02:42:21.503Z,0
2019-03-15T02:43:23.506Z,0
2019-03-15T02:44:25.516Z,0
2019-03-15T02:45:27.615Z,0
2019-03-15T02:46:30.616Z,0
2019-03-15T02:47:32.903Z,0
2019-03-15T02:48:35.521Z,0
2019-03-15T02:49:37.556Z,0
2019-03-15T02:50:39.556Z,0
2019-03-15T02:51:41.973Z,0
2019-03-15T02:52:43.986Z,0
2019-03-15T02:53:46.009Z,0
2019-03-15T02:54:48.333Z,0
2019-03-15T02:55:51.017Z,0
2019-03-15T02:56:53.019Z,0
2019-03-15T02:57:55.025Z,0
2019-03-15T02:58:57.639Z,0
2019-03-15T03:00:00.044Z,0
2019-03-15T03:01:02.747Z,0
2019-03-15T03:02:05.426Z,0
2019-03-15T03:03:07.666Z,0
2019-03-15T03:04:10.413Z,0
2019-03-15T03:05:12.573Z,0
2019-03-15T03:06:15.039Z,0
2019-03-15T03:07:17.080Z,0
2019-03-15T03:08:19.802Z,0
2019-03-15T03:09:21.887Z,0
2019-03-15T03:10:24.354Z,0
2019-03-15T03:11:26.444Z,0
2019-03-15T03:12:28.808Z,0
2019-03-15T03:13:31.337Z,0
2019-03-15T03:14:33.943Z,0
2019-03-15T03:15:36.033Z,0
2019-03-15T03:16:38.064Z,0
2019-03-15T03:17:40.438Z,0
2019-03-15T03:18:42.982Z,0
2019-03-15T03:19:45.285Z,0
2019-03-15T03:20:48.329Z,0
2019-03-15T03:21:51.170Z,0
2019-03-15T03:22:53.565Z,0
2019-03-15T03:23:57.296Z,0
2019-03-15T03:24:59.846Z,0
2019-03-15T03:26:02.511Z,0
2019-03-15T03:27:05.149Z,0
2019-03-15T03:28:09.191Z,0
2019-03-15T03:29:11.238Z,0
2019-03-15T03:30:16.394Z,0
2019-03-15T03:31:19.962Z,0
2019-03-15T03:32:22.448Z,0
2019-03-15T03:33:25.010Z,0
2019-03-15T03:34:27.653Z,0
2019-03-15T03:35:30.344Z,0
2019-03-15T03:36:33.070Z,0
2019-03-15T03:37:35.130Z,0
2019-03-15T03:38:37.249Z,0
2019-03-15T03:39:41.527Z,0
2019-03-15T03:40:43.848Z,0
2019-03-15T03:41:46.472Z,0
2019-03-15T03:42:48.796Z,0
2019-03-15T03:43:51.423Z,0
2019-03-15T03:44:53.452Z,0
2019-03-15T03:45:55.771Z,0
2019-03-15T03:46:57.869Z,0
2019-03-15T03:47:59.909Z,0
2019-03-15T03:49:02.064Z,0
2019-03-15T03:50:04.414Z,0
2019-03-15T03:51:06.469Z,0
2019-03-15T03:52:09.891Z,0
2019-03-15T03:53:11.905Z,0
2019-03-15T03:54:14.064Z,0
2019-03-15T03:55:16.094Z,0
2019-03-15T03:56:18.119Z,0
2019-03-15T03:57:20.398Z,0
2019-03-15T03:58:22.424Z,0
2019-03-15T03:59:24.598Z,0
2019-03-15T04:00:26.619Z,0
2019-03-15T04:01:28.980Z,0
2019-03-15T04:02:32.948Z,0
2019-03-15T04:03:35.870Z,0
2019-03-15T04:04:38.290Z,0
2019-03-15T04:05:40.947Z,0
2019-03-15T04:06:42.982Z,0
2019-03-15T04:07:45.335Z,0
2019-03-15T04:08:47.651Z,0
2019-03-15T04:09:49.668Z,0
2019-03-15T04:10:51.721Z,0
2019-03-15T04:11:55.533Z,0
2019-03-15T04:12:58.313Z,0
2019-03-15T04:14:00.358Z,0
2019-03-15T04:15:02.392Z,0
2019-03-15T04:16:04.456Z,0
2019-03-15T04:17:06.777Z,0
2019-03-15T04:18:08.824Z,0
2019-03-15T04:19:10.848Z,0
2019-03-15T04:20:12.882Z,0
2019-03-15T04:21:14.910Z,0
2019-03-15T04:22:16.945Z,0
2019-03-15T04:23:18.994Z,0
2019-03-15T04:24:21.043Z,0
2019-03-15T04:25:23.362Z,0
2019-03-15T04:26:25.418Z,0
2019-03-15T04:27:27.731Z,0
2019-03-15T04:28:29.771Z,0
2019-03-15T04:29:31.814Z,0
2019-03-15T04:30:33.836Z,0
2019-03-15T04:31:35.871Z,0
2019-03-15T04:32:37.918Z,0
2019-03-15T04:33:39.959Z,0
2019-03-15T04:34:41.982Z,0
2019-03-15T04:35:44.014Z,0
2019-03-15T04:36:46.049Z,0
2019-03-15T04:37:48.073Z,0
2019-03-15T04:38:50.435Z,0
2019-03-15T04:39:52.689Z,0
2019-03-15T04:40:54.720Z,0
2019-03-15T04:41:57.392Z,0
2019-03-15T04:42:59.432Z,0
2019-03-15T04:44:02.443Z,0
2019-03-15T04:45:04.763Z,0
2019-03-15T04:46:06.803Z,0
2019-03-15T04:47:08.866Z,0
2019-03-15T04:48:10.978Z,0
2019-03-15T04:49:13.106Z,0
2019-03-15T04:50:15.142Z,0
2019-03-15T04:51:17.169Z,0
2019-03-15T04:52:19.209Z,0
2019-03-15T04:53:21.239Z,0
2019-03-15T04:54:23.538Z,0
2019-03-15T04:55:25.576Z,0
2019-03-15T04:56:27.622Z,0
2019-03-15T04:57:29.655Z,0
2019-03-15T04:58:31.686Z,0
2019-03-15T04:59:33.736Z,4
2019-03-15T05:00:35.761Z,0
2019-03-15T05:01:37.807Z,4
2019-03-15T05:02:39.947Z,4
2019-03-15T05:03:42.080Z,4
2019-03-15T05:04:44.155Z,4
2019-03-15T05:05:46.189Z,4
2019-03-15T05:07:03.219Z,8
2019-03-15T05:08:05.633Z,8
2019-03-15T05:09:07.706Z,12
2019-03-15T05:10:09.748Z,16
2019-03-15T05:11:11.771Z,16
2019-03-15T05:12:14.484Z,20
2019-03-15T05:13:16.506Z,28
2019-03-15T05:14:18.629Z,28
2019-03-15T05:15:20.966Z,32
2019-03-15T05:16:23.024Z,40
2019-03-15T05:17:25.426Z,40
2019-03-15T05:18:27.565Z,44
2019-03-15T05:19:30.170Z,48
2019-03-15T05:20:32.468Z,48
2019-03-15T05:21:34.513Z,52
2019-03-15T05:22:37.097Z,64
2019-03-15T05:23:39.131Z,64
2019-03-15T05:24:41.445Z,68
2019-03-15T05:25:43.626Z,76
2019-03-15T05:26:45.658Z,96
2019-03-15T05:27:47.683Z,128
2019-03-15T05:28:49.715Z,188
2019-03-15T05:29:52.041Z,248
2019-03-15T05:30:54.093Z,328
2019-03-15T05:31:56.117Z,380
2019-03-15T05:32:58.153Z,424
2019-03-15T05:34:00.186Z,468
2019-03-15T05:35:02.240Z,524
2019-03-15T05:36:04.564Z,580
2019-03-15T05:37:06.578Z,624
2019-03-15T05:38:08.611Z,664
2019-03-15T05:39:10.640Z,672
2019-03-15T05:40:12.681Z,688
2019-03-15T05:41:14.699Z,704
2019-03-15T05:42:17.018Z,720
2019-03-15T05:43:19.044Z,784
2019-03-15T05:44:21.146Z,884
2019-03-15T05:45:23.190Z,964
2019-03-15T05:46:25.215Z,1020
2019-03-15T05:47:27.240Z,1080
2019-03-15T05:48:29.315Z,1200
2019-03-15T05:49:31.354Z,1308
2019-03-15T05:50:33.381Z,1376
2019-03-15T05:51:35.411Z,1408
2019-03-15T05:52:37.482Z,1408
2019-03-15T05:53:39.498Z,1316
2019-03-15T05:54:41.539Z,1316
2019-03-15T05:55:43.592Z,1320
2019-03-15T05:56:45.790Z,1272
2019-03-15T05:57:47.817Z,1256
2019-03-15T05:58:49.855Z,1300
2019-03-15T05:59:51.899Z,1328
2019-03-15T06:00:54.607Z,1136
2019-03-15T06:01:56.650Z,1164
2019-03-15T06:02:58.694Z,1120
2019-03-15T06:04:00.764Z,1272
2019-03-15T06:05:03.198Z,1096
2019-03-15T06:06:05.557Z,1048
2019-03-15T06:07:07.589Z,1436
2019-03-15T06:08:09.614Z,1452
2019-03-15T06:09:12.352Z,1504
2019-03-15T06:10:14.926Z,1852
2019-03-15T06:11:16.967Z,1472
2019-03-15T06:12:19.004Z,1904
2019-03-15T06:13:21.138Z,2336
2019-03-15T06:14:23.154Z,2700
2019-03-15T06:15:25.197Z,2780
2019-03-15T06:16:27.229Z,3012
2019-03-15T06:17:29.531Z,2156
2019-03-15T06:18:31.587Z,2324
2019-03-15T06:19:34.362Z,3148
2019-03-15T06:20:36.406Z,4016
2019-03-15T06:21:38.827Z,3344
2019-03-15T06:22:40.905Z,2356
2019-03-15T06:23:42.937Z,2052
2019-03-15T06:24:44.971Z,1756
2019-03-15T06:25:47.009Z,1768
2019-03-15T06:26:49.310Z,1948
2019-03-15T06:27:51.916Z,1688
2019-03-15T06:28:53.949Z,1536
2019-03-15T06:29:55.975Z,1504
2019-03-15T06:30:58.013Z,2012
2019-03-15T06:32:00.349Z,2156
2019-03-15T06:33:02.942Z,3140
2019-03-15T06:34:05.036Z,3504
2019-03-15T06:35:07.071Z,3664
2019-03-15T06:36:09.091Z,5124
2019-03-15T06:37:11.127Z,5344
2019-03-15T06:38:13.169Z,5584
2019-03-15T06:39:15.185Z,4720
2019-03-15T06:40:17.225Z,4196
2019-03-15T06:41:19.819Z,4548
2019-03-15T06:42:21.856Z,4912
2019-03-15T06:43:23.908Z,5512
2019-03-15T06:44:27.091Z,5784
2019-03-15T06:45:29.569Z,6744
2019-03-15T06:46:34.213Z,7088
2019-03-15T06:47:36.360Z,6104
2019-03-15T06:48:38.396Z,5160
2019-03-15T06:49:40.424Z,5840
2019-03-15T06:50:42.754Z,7572
2019-03-15T06:51:44.766Z,7232
2019-03-15T06:52:46.811Z,6832
2019-03-15T06:53:49.131Z,6644
2019-03-15T06:54:51.181Z,4828
2019-03-15T06:55:53.248Z,5528
2019-03-15T06:56:55.286Z,7400
2019-03-15T06:57:57.327Z,7776
2019-03-15T06:58:59.647Z,5524
2019-03-15T07:00:01.739Z,5532
2019-03-15T07:01:05.472Z,5440
2019-03-15T07:02:07.517Z,4392
2019-03-15T07:03:09.555Z,3940
2019-03-15T07:04:11.678Z,5700
2019-03-15T07:05:13.699Z,5940
2019-03-15T07:06:15.741Z,6324
2019-03-15T07:07:17.762Z,6088
2019-03-15T07:08:20.075Z,5416
2019-03-15T07:09:22.415Z,4364
2019-03-15T07:10:24.726Z,4028
2019-03-15T07:11:26.754Z,4936
2019-03-15T07:12:28.807Z,5564
2019-03-15T07:13:30.839Z,5080
2019-03-15T07:14:32.875Z,4912
2019-03-15T07:15:34.896Z,4636
2019-03-15T07:16:38.554Z,4748
2019-03-15T07:17:41.654Z,4568
2019-03-15T07:18:43.896Z,4308
2019-03-15T07:19:45.922Z,4600
2019-03-15T07:20:48.260Z,4624
2019-03-15T07:21:50.291Z,5884
2019-03-15T07:22:52.328Z,3768
2019-03-15T07:23:57.481Z,4908
2019-03-15T07:24:59.988Z,4144
2019-03-15T07:26:02.031Z,5564
2019-03-15T07:27:12.477Z,6032
2019-03-15T07:28:15.939Z,5080
2019-03-15T07:29:19.031Z,3916
2019-03-15T07:30:21.500Z,6392
2019-03-15T07:31:23.816Z,8296
2019-03-15T07:32:25.850Z,8196
2019-03-15T07:33:27.913Z,8348
2019-03-15T07:34:30.319Z,9180
2019-03-15T07:35:33.486Z,8616
2019-03-15T07:36:37.221Z,7352
2019-03-15T07:37:39.529Z,6836
2019-03-15T07:38:42.540Z,6656
2019-03-15T07:39:44.602Z,5332
2019-03-15T07:40:46.632Z,4792
2019-03-15T07:41:48.660Z,6440
2019-03-15T07:42:51.377Z,7652
2019-03-15T07:43:53.509Z,7704
2019-03-15T07:44:55.649Z,8320
2019-03-15T07:45:57.701Z,8904
2019-03-15T07:47:00.118Z,9920
2019-03-15T07:48:02.226Z,9744
2019-03-15T07:49:04.289Z,8684
2019-03-15T07:50:06.310Z,6004
2019-03-15T07:51:08.430Z,6500
2019-03-15T07:52:10.468Z,6772
2019-03-15T07:53:12.528Z,5272
2019-03-15T07:54:14.560Z,6168
2019-03-15T07:55:16.585Z,7024
2019-03-15T07:56:18.911Z,7552
2019-03-15T07:57:20.972Z,8244
2019-03-15T07:58:22.994Z,6104
2019-03-15T07:59:27.742Z,5924
2019-03-15T08:00:30.075Z,6832
2019-03-15T08:01:32.118Z,6868
2019-03-15T08:02:34.209Z,7784
2019-03-15T08:03:36.257Z,8344
2019-03-15T08:04:38.303Z,6556
2019-03-15T08:05:40.333Z,6432
2019-03-15T08:06:42.391Z,7320
2019-03-15T08:07:45.726Z,7032
2019-03-15T08:08:48.325Z,7036
2019-03-15T08:09:50.693Z,6872
2019-03-15T08:10:54.959Z,7772
2019-03-15T08:11:57.242Z,7080
2019-03-15T08:12:59.272Z,8248
2019-03-15T08:14:01.305Z,8408
2019-03-15T08:15:03.350Z,8360
2019-03-15T08:16:05.683Z,7524
2019-03-15T08:17:08.006Z,7788
2019-03-15T08:18:10.041Z,7184
2019-03-15T08:19:12.176Z,7580
2019-03-15T08:20:14.240Z,9756
2019-03-15T08:21:16.584Z,9036
2019-03-15T08:22:18.925Z,11216
2019-03-15T08:23:20.949Z,8608
2019-03-15T08:24:23.005Z,8564
2019-03-15T08:25:25.043Z,8136
2019-03-15T08:26:29.860Z,7168
2019-03-15T08:27:32.364Z,7944
2019-03-15T08:28:34.400Z,7352
2019-03-15T08:29:36.463Z,6556
2019-03-15T08:30:38.499Z,6928
2019-03-15T08:31:40.544Z,6952
2019-03-15T08:32:43.736Z,7124
2019-03-15T08:33:46.515Z,6240
2019-03-15T08:34:48.836Z,8860
2019-03-15T08:35:51.152Z,7912
2019-03-15T08:36:53.197Z,7580
2019-03-15T08:37:55.230Z,8820
2019-03-15T08:38:57.259Z,8540
2019-03-15T08:39:59.321Z,7828
2019-03-15T08:41:01.616Z,8092
2019-03-15T08:42:03.645Z,9808
2019-03-15T08:43:05.698Z,9116
2019-03-15T08:44:07.730Z,9764
2019-03-15T08:45:09.756Z,9328
2019-03-15T08:46:12.072Z,10208
2019-03-15T08:47:14.115Z,9052
2019-03-15T08:48:16.171Z,9216
2019-03-15T08:49:18.282Z,9292
2019-03-15T08:50:20.686Z,9948
2019-03-15T08:51:26.807Z,9076
2019-03-15T08:52:28.868Z,7072
2019-03-15T08:53:30.906Z,6952
2019-03-15T08:54:32.937Z,7448
2019-03-15T08:55:35.071Z,6512
2019-03-15T08:56:40.649Z,6960
2019-03-15T08:57:42.683Z,6664
2019-03-15T08:58:44.872Z,6788
2019-03-15T08:59:54.096Z,5836
2019-03-15T09:01:00.474Z,6104
2019-03-15T09:02:02.606Z,5980
2019-03-15T09:03:04.646Z,5640
2019-03-15T09:04:06.669Z,5616
2019-03-15T09:05:08.720Z,6716
2019-03-15T09:06:10.748Z,5956
2019-03-15T09:07:12.783Z,6380
2019-03-15T09:08:14.815Z,7144
2019-03-15T09:09:17.149Z,8804
2019-03-15T09:10:23.741Z,8900
2019-03-15T09:11:26.380Z,8156
2019-03-15T09:12:28.473Z,10104
2019-03-15T09:13:31.059Z,11336
2019-03-15T09:14:33.100Z,11336
2019-03-15T09:15:35.125Z,11956
2019-03-15T09:16:37.294Z,12360
2019-03-15T09:17:39.609Z,11348
2019-03-15T09:18:41.647Z,11292
2019-03-15T09:19:43.680Z,11448
2019-03-15T09:20:45.734Z,11732
2019-03-15T09:21:48.049Z,13496
2019-03-15T09:22:50.075Z,13788
2019-03-15T09:23:52.110Z,13340
2019-03-15T09:24:54.156Z,10208
2019-03-15T09:25:56.453Z,9872
2019-03-15T09:26:58.779Z,9640
2019-03-15T09:28:01.103Z,9372
2019-03-15T09:29:03.129Z,8848
2019-03-15T09:30:05.468Z,11948
2019-03-15T09:31:07.817Z,12324
2019-03-15T09:32:09.966Z,11544
2019-03-15T09:33:12.003Z,12668
2019-03-15T09:34:14.338Z,14540
2019-03-15T09:35:16.652Z,15404
2019-03-15T09:36:18.967Z,19264
2019-03-15T09:37:21.019Z,18008
2019-03-15T09:38:23.084Z,16324
2019-03-15T09:39:25.182Z,13144
2019-03-15T09:40:27.221Z,10960
2019-03-15T09:41:32.149Z,9700
2019-03-15T09:42:42.461Z,9312
2019-03-15T09:43:45.462Z,7436
2019-03-15T09:44:48.066Z,8476
2019-03-15T09:45:50.103Z,12104
2019-03-15T09:46:52.161Z,12184
2019-03-15T09:47:54.480Z,12480
2019-03-15T09:48:59.609Z,10408
2019-03-15T09:50:01.887Z,12016
2019-03-15T09:51:03.924Z,13028
2019-03-15T09:52:05.966Z,12140
2019-03-15T09:53:08.007Z,12852
2019-03-15T09:54:10.051Z,11668
2019-03-15T09:55:12.095Z,12052
2019-03-15T09:56:14.144Z,9728
2019-03-15T09:57:16.177Z,16312
2019-03-15T09:58:18.250Z,17704
2019-03-15T09:59:20.290Z,15800
2019-03-15T10:00:22.619Z,14108
2019-03-15T10:01:34.597Z,11188
2019-03-15T10:02:37.565Z,13960
2019-03-15T10:03:39.610Z,14020
2019-03-15T10:04:41.932Z,15416
2019-03-15T10:05:43.987Z,16080
2019-03-15T10:06:46.016Z,13904
2019-03-15T10:07:48.080Z,12576
2019-03-15T10:08:50.563Z,13636
2019-03-15T10:09:52.650Z,11656
2019-03-15T10:10:54.690Z,15344
2019-03-15T10:11:56.755Z,18196
2019-03-15T10:13:05.511Z,17980
2019-03-15T10:14:08.429Z,18188
2019-03-15T10:15:10.476Z,19584
2019-03-15T10:16:12.787Z,19168
2019-03-15T10:17:14.825Z,19360
2019-03-15T10:18:16.871Z,20544
2019-03-15T10:19:19.184Z,22016
2019-03-15T10:20:21.236Z,21664
2019-03-15T10:21:23.648Z,23904
2019-03-15T10:22:25.682Z,27968
2019-03-15T10:23:27.726Z,29312
2019-03-15T10:24:29.757Z,27680
2019-03-15T10:25:45.500Z,27168
2019-03-15T10:26:53.542Z,28768
2019-03-15T10:27:55.566Z,26720
2019-03-15T10:28:57.652Z,24320
2019-03-15T10:29:59.705Z,30880
2019-03-15T10:31:02.023Z,30048
2019-03-15T10:32:04.054Z,21504
2019-03-15T10:33:06.672Z,18592
2019-03-15T10:34:08.721Z,15048
2019-03-15T10:35:10.762Z,15732
2019-03-15T10:36:13.086Z,17900
2019-03-15T10:37:15.105Z,19136
2019-03-15T10:38:17.146Z,19616
2019-03-15T10:39:19.182Z,17736
2019-03-15T10:40:21.223Z,14896
2019-03-15T10:41:23.933Z,15432
2019-03-15T10:42:25.972Z,13880
2019-03-15T10:43:28.030Z,12880
2019-03-15T10:44:30.362Z,10040
2019-03-15T10:45:32.796Z,9248
2019-03-15T10:46:35.205Z,8720
2019-03-15T10:47:37.243Z,11172
2019-03-15T10:48:43.204Z,13024
2019-03-15T10:49:45.245Z,18496
2019-03-15T10:50:47.293Z,20096
2019-03-15T10:51:49.334Z,25792
2019-03-15T10:52:53.739Z,26272
2019-03-15T10:53:56.450Z,25376
2019-03-15T10:54:58.498Z,23328
2019-03-15T10:56:00.777Z,26592
2019-03-15T10:57:02.866Z,31264
2019-03-15T10:58:04.937Z,34368
2019-03-15T10:59:06.976Z,39424
2019-03-15T11:00:09.014Z,39904
2019-03-15T11:01:11.061Z,39456
2019-03-15T11:02:13.126Z,35872
2019-03-15T11:03:15.151Z,32352
2019-03-15T11:04:17.216Z,27840
2019-03-15T11:05:19.247Z,26720
2019-03-15T11:06:21.321Z,27584
2019-03-15T11:07:23.349Z,31424
2019-03-15T11:08:25.383Z,32768
2019-03-15T11:09:27.918Z,33216
2019-03-15T11:10:29.941Z,28704
2019-03-15T11:11:31.991Z,21728
2019-03-15T11:12:34.028Z,19840
2019-03-15T11:13:36.076Z,18720
2019-03-15T11:14:38.102Z,18324
2019-03-15T11:15:40.145Z,18688
2019-03-15T11:16:42.266Z,17896
2019-03-15T11:17:44.300Z,21024
2019-03-15T11:18:46.376Z,21024
2019-03-15T11:19:48.457Z,22240
2019-03-15T11:20:50.928Z,24576
2019-03-15T11:21:53.669Z,20256
2019-03-15T11:22:56.041Z,19072
2019-03-15T11:23:58.088Z,15920
2019-03-15T11:25:00.461Z,12844
2019-03-15T11:26:12.906Z,10208
2019-03-15T11:27:16.830Z,9936
2019-03-15T11:28:18.879Z,8936
2019-03-15T11:29:20.929Z,8468
2019-03-15T11:30:23.652Z,8932
2019-03-15T11:31:25.695Z,9292
2019-03-15T11:32:27.745Z,9108
2019-03-15T11:33:29.859Z,11280
2019-03-15T11:34:31.900Z,15500
2019-03-15T11:35:33.943Z,18592
2019-03-15T11:36:35.971Z,17732
2019-03-15T11:37:38.039Z,15532
2019-03-15T11:38:40.753Z,13392
2019-03-15T11:39:42.781Z,10784
2019-03-15T11:40:45.202Z,10120
2019-03-15T11:41:47.232Z,8420
2019-03-15T11:42:49.289Z,8336
2019-03-15T11:43:51.339Z,9116
2019-03-15T11:44:53.419Z,9064
2019-03-15T11:45:55.453Z,8636
2019-03-15T11:46:57.521Z,8228
2019-03-15T11:48:03.679Z,7436
2019-03-15T11:49:10.310Z,7208
2019-03-15T11:50:12.355Z,7672
2019-03-15T11:51:14.435Z,7456
2019-03-15T11:52:16.457Z,7508
2019-03-15T11:53:18.968Z,5428
2019-03-15T11:54:21.099Z,6500
2019-03-15T11:55:23.155Z,6576
2019-03-15T11:56:27.082Z,7572
2019-03-15T11:57:29.391Z,6396
2019-03-15T11:58:31.429Z,6428
2019-03-15T11:59:36.054Z,7288
2019-03-15T12:00:38.609Z,7956
2019-03-15T12:01:40.633Z,8560
2019-03-15T12:02:42.689Z,8812
2019-03-15T12:03:52.742Z,8804
2019-03-15T12:04:55.881Z,9268
2019-03-15T12:05:57.909Z,9736
2019-03-15T12:07:00.443Z,11172
2019-03-15T12:08:02.753Z,10932
2019-03-15T12:09:04.844Z,12408
2019-03-15T12:10:07.179Z,13928
2019-03-15T12:11:09.247Z,14244
2019-03-15T12:12:11.294Z,12408
2019-03-15T12:13:13.421Z,11340
2019-03-15T12:14:15.471Z,11636
2019-03-15T12:15:17.828Z,12592
2019-03-15T12:16:19.890Z,10504
2019-03-15T12:17:22.303Z,8568
2019-03-15T12:18:24.682Z,10280
2019-03-15T12:19:26.734Z,10188
2019-03-15T12:20:29.191Z,10540
2019-03-15T12:21:31.232Z,10968
2019-03-15T12:22:33.265Z,11128
2019-03-15T12:23:35.340Z,12536
2019-03-15T12:24:37.374Z,8636
2019-03-15T12:25:39.413Z,8180
2019-03-15T12:26:41.452Z,8344
2019-03-15T12:27:43.503Z,7604
2019-03-15T12:28:46.241Z,7716
2019-03-15T12:29:48.270Z,5708
2019-03-15T12:30:50.370Z,6120
2019-03-15T12:31:52.684Z,4764
2019-03-15T12:32:54.717Z,6868
2019-03-15T12:33:57.437Z,6032
2019-03-15T12:34:59.587Z,6304
2019-03-15T12:36:03.464Z,4600
2019-03-15T12:37:05.984Z,5276
2019-03-15T12:38:08.020Z,4544
2019-03-15T12:39:10.043Z,4680
2019-03-15T12:40:12.076Z,4576
2019-03-15T12:41:14.097Z,5012
2019-03-15T12:42:16.135Z,5408
2019-03-15T12:43:18.179Z,4124
2019-03-15T12:44:20.213Z,5040
2019-03-15T12:45:22.830Z,5024
2019-03-15T12:46:24.880Z,4644
2019-03-15T12:47:26.905Z,3804
2019-03-15T12:48:29.323Z,4568
2019-03-15T12:49:31.361Z,4312
2019-03-15T12:50:33.378Z,4016
2019-03-15T12:51:35.766Z,4320
2019-03-15T12:52:46.823Z,4804
2019-03-15T12:53:50.833Z,3064
2019-03-15T12:54:53.188Z,2852
2019-03-15T12:55:55.225Z,3276
2019-03-15T12:56:57.638Z,3836
2019-03-15T12:57:59.667Z,4896
2019-03-15T12:59:01.702Z,4028
2019-03-15T13:00:03.748Z,3376
2019-03-15T13:01:05.789Z,3856
2019-03-15T13:02:07.822Z,4220
2019-03-15T13:03:09.853Z,4856
2019-03-15T13:04:11.895Z,5276
2019-03-15T13:05:14.212Z,3944
2019-03-15T13:06:16.627Z,3580
2019-03-15T13:07:18.675Z,4572
2019-03-15T13:08:20.693Z,3640
2019-03-15T13:09:22.733Z,4388
2019-03-15T13:10:24.770Z,3352
2019-03-15T13:11:26.797Z,3364
2019-03-15T13:12:28.825Z,2700
2019-03-15T13:13:31.139Z,2244
2019-03-15T13:14:33.164Z,2216
2019-03-15T13:15:35.203Z,2856
2019-03-15T13:16:37.254Z,3136
2019-03-15T13:17:39.290Z,2616
2019-03-15T13:18:41.312Z,3036
2019-03-15T13:19:54.417Z,4872
2019-03-15T13:20:57.574Z,4904
2019-03-15T13:21:59.607Z,3772
2019-03-15T13:23:01.648Z,4528
2019-03-15T13:24:04.023Z,4172
2019-03-15T13:25:06.078Z,3616
2019-03-15T13:26:08.134Z,3500
2019-03-15T13:27:10.178Z,4308
2019-03-15T13:28:12.200Z,3840
2019-03-15T13:29:14.240Z,5148
2019-03-15T13:30:16.565Z,5684
2019-03-15T13:31:18.649Z,5348
2019-03-15T13:32:20.702Z,4840
2019-03-15T13:33:22.734Z,4172
2019-03-15T13:34:24.765Z,4888
2019-03-15T13:35:26.802Z,5616
2019-03-15T13:36:29.123Z,5032
2019-03-15T13:37:31.152Z,5784
2019-03-15T13:38:33.475Z,6380
2019-03-15T13:39:36.186Z,4632
2019-03-15T13:40:38.237Z,5028
2019-03-15T13:41:40.283Z,6024
2019-03-15T13:42:42.324Z,4676
2019-03-15T13:43:44.687Z,5276
2019-03-15T13:44:46.725Z,6484
2019-03-15T13:45:48.746Z,5176
2019-03-15T13:46:50.783Z,4196
2019-03-15T13:47:53.084Z,4556
2019-03-15T13:48:55.120Z,4628
2019-03-15T13:49:57.548Z,4496
2019-03-15T13:51:00.257Z,4032
2019-03-15T13:52:02.281Z,4728
2019-03-15T13:53:04.353Z,5052
2019-03-15T13:54:06.394Z,5520
2019-03-15T13:55:08.432Z,3792
2019-03-15T13:56:10.487Z,5500
2019-03-15T13:57:20.871Z,5724
2019-03-15T13:58:23.774Z,4020
2019-03-15T13:59:25.807Z,3528
2019-03-15T14:00:28.161Z,4748
2019-03-15T14:01:30.225Z,4208
2019-03-15T14:02:32.263Z,3596
2019-03-15T14:03:34.659Z,3468
2019-03-15T14:04:36.681Z,3296
2019-03-15T14:05:38.749Z,4648
2019-03-15T14:06:40.766Z,5500
2019-03-15T14:07:42.798Z,3740
2019-03-15T14:08:44.827Z,3700
2019-03-15T14:09:46.894Z,4452
2019-03-15T14:10:49.845Z,4604
2019-03-15T14:11:52.286Z,4984
2019-03-15T14:12:54.339Z,5448
2019-03-15T14:13:56.360Z,5832
2019-03-15T14:14:59.084Z,5064
2019-03-15T14:16:01.785Z,7552
2019-03-15T14:17:03.935Z,9824
2019-03-15T14:18:06.076Z,12944
2019-03-15T14:19:08.121Z,9488